createdAt,value
2022-12-16T00:02:08.343Z,43.15
2022-12-16T00:04:35.408Z,39.47
2022-12-16T00:07:02.312Z,43.88
2022-12-16T00:09:29.239Z,37.15
2022-12-16T00:11:56.299Z,37.70
2022-12-16T00:14:23.227Z,39.72
2022-12-16T00:16:50.248Z,38.20
2022-12-16T00:19:17.466Z,45.75
2022-12-16T00:21:44.424Z,37.03
2022-12-16T00:24:11.278Z,38.50
2022-12-16T00:26:38.213Z,36.75
2022-12-16T00:29:06.280Z,35.85
2022-12-16T00:31:33.294Z,39.90
2022-12-16T00:34:00.381Z,39.80
2022-12-16T00:36:27.412Z,39.67
2022-12-16T00:38:54.321Z,40.50
2022-12-16T00:41:22.271Z,37.63
2022-12-16T00:43:49.181Z,36.45
2022-12-16T00:46:16.195Z,40.40
2022-12-16T00:48:43.131Z,44.08
2022-12-16T00:51:10.078Z,34.85
2022-12-16T00:53:38.220Z,34.33
2022-12-16T00:56:08.214Z,39.13
2022-12-16T00:58:35.829Z,36.67
2022-12-16T01:01:03.857Z,37.60
2022-12-16T01:03:31.092Z,37.88
2022-12-16T01:05:58.101Z,34.05
2022-12-16T01:08:25.098Z,34.90
2022-12-16T01:10:56.957Z,36.67
2022-12-16T01:13:26.155Z,32.08
2022-12-16T01:15:53.509Z,38.00
2022-12-16T01:18:21.260Z,33.85
2022-12-16T01:20:48.158Z,35.70
2022-12-16T01:23:15.101Z,33.13
2022-12-16T01:25:42.045Z,34.40
2022-12-16T01:28:09.209Z,33.28
2022-12-16T01:30:36.320Z,33.10
2022-12-16T01:33:03.350Z,30.88
2022-12-16T01:35:52.572Z,36.80
2022-12-16T01:38:17.140Z,29.83
2022-12-16T01:40:44.041Z,33.15
2022-12-16T01:43:14.133Z,32.25
2022-12-16T01:45:41.350Z,32.90
2022-12-16T01:48:34.923Z,33.20
2022-12-16T01:51:13.956Z,32.45
2022-12-16T01:53:43.547Z,34.35
2022-12-16T01:56:13.190Z,28.77
2022-12-16T01:58:41.511Z,27.58
2022-12-16T02:01:09.165Z,32.05
2022-12-16T02:03:37.819Z,28.83
2022-12-16T02:06:06.818Z,28.60
2022-12-16T02:08:33.941Z,28.42
2022-12-16T02:11:37.821Z,30.88
2022-12-16T02:14:10.510Z,31.27
2022-12-16T02:17:01.969Z,27.40
2022-12-16T02:19:47.691Z,28.08
2022-12-16T02:22:38.540Z,29.70
2022-12-16T02:25:17.279Z,28.35
2022-12-16T02:27:50.265Z,29.48
2022-12-16T02:30:37.433Z,29.25
2022-12-16T02:33:19.565Z,29.85
2022-12-16T02:36:06.804Z,30.95
2022-12-16T02:39:00.714Z,30.60
2022-12-16T02:41:50.522Z,31.63
2022-12-16T02:44:18.543Z,30.20
2022-12-16T02:46:55.996Z,32.92
2022-12-16T02:49:23.867Z,28.85
2022-12-16T02:51:51.608Z,31.65
2022-12-16T02:54:19.023Z,29.02
2022-12-16T02:56:48.965Z,25.48
2022-12-16T02:59:29.982Z,28.42
2022-12-16T03:02:09.122Z,30.08
2022-12-16T03:04:58.321Z,29.48
2022-12-16T03:07:28.737Z,31.67
2022-12-16T03:09:57.652Z,25.80
2022-12-16T03:12:24.876Z,25.70
2022-12-16T03:14:54.884Z,32.03
2022-12-16T03:17:24.361Z,32.03
2022-12-16T03:20:05.461Z,32.05
2022-12-16T03:22:36.523Z,37.78
2022-12-16T03:25:04.440Z,36.25
2022-12-16T03:27:55.750Z,27.23
2022-12-16T03:30:53.299Z,30.65
2022-12-16T03:33:29.863Z,31.38
2022-12-16T03:36:07.255Z,25.98
2022-12-16T03:38:36.676Z,29.40
2022-12-16T03:41:04.267Z,30.17
2022-12-16T03:43:31.909Z,27.95
2022-12-16T03:46:03.644Z,31.30
2022-12-16T03:48:31.133Z,29.40
2022-12-16T03:50:58.045Z,32.42
2022-12-16T03:53:26.984Z,28.58
2022-12-16T03:55:54.904Z,32.33
2022-12-16T03:58:22.064Z,28.23
2022-12-16T04:00:49.027Z,33.95
2022-12-16T04:03:16.122Z,27.50
2022-12-16T04:05:43.132Z,30.70
2022-12-16T04:08:10.060Z,29.20
2022-12-16T04:10:55.915Z,28.17
2022-12-16T04:13:41.243Z,26.73
2022-12-16T04:16:34.421Z,28.25
2022-12-16T04:19:21.177Z,31.15
2022-12-16T04:22:06.602Z,29.00
2022-12-16T04:24:34.321Z,30.42
2022-12-16T04:27:19.896Z,30.95
2022-12-16T04:30:05.262Z,29.63
2022-12-16T04:32:52.492Z,30.10
2022-12-16T04:35:38.819Z,34.80
2022-12-16T04:38:24.232Z,31.60
2022-12-16T04:41:09.543Z,33.35
2022-12-16T04:43:55.014Z,39.50
2022-12-16T04:46:40.535Z,32.22
2022-12-16T04:49:26.012Z,27.90
2022-12-16T04:52:11.289Z,33.13
2022-12-16T04:54:56.616Z,29.55
2022-12-16T04:57:42.122Z,34.10
2022-12-16T05:00:27.961Z,31.15
2022-12-16T05:03:13.407Z,33.70
2022-12-16T05:05:58.793Z,29.60
2022-12-16T05:08:44.280Z,29.70
2022-12-16T05:11:29.621Z,31.08
2022-12-16T05:14:15.618Z,28.40
2022-12-16T05:17:01.397Z,30.80
2022-12-16T05:19:46.698Z,29.52
2022-12-16T05:22:32.119Z,26.67
2022-12-16T05:25:17.419Z,27.88
2022-12-16T05:28:02.646Z,26.48
2022-12-16T05:30:48.016Z,25.08
2022-12-16T05:33:34.110Z,28.95
2022-12-16T05:36:20.046Z,27.20
2022-12-16T05:39:05.496Z,24.73
2022-12-16T05:41:50.805Z,21.83
2022-12-16T05:44:36.732Z,28.92
2022-12-16T05:47:22.286Z,27.02
2022-12-16T05:50:08.148Z,23.25
2022-12-16T05:52:54.371Z,25.67
2022-12-16T05:55:40.400Z,25.52
2022-12-16T05:58:25.926Z,27.92
2022-12-16T06:01:11.320Z,26.58
2022-12-16T06:03:57.173Z,28.35
2022-12-16T06:06:42.343Z,23.50
2022-12-16T06:09:28.179Z,22.63
2022-12-16T06:12:13.900Z,23.73
2022-12-16T06:14:59.438Z,24.50
2022-12-16T06:17:44.791Z,20.80
2022-12-16T06:20:30.154Z,25.00
2022-12-16T06:23:15.455Z,23.95
2022-12-16T06:26:00.816Z,22.85
2022-12-16T06:28:46.293Z,22.70
2022-12-16T06:31:32.070Z,20.13
2022-12-16T06:34:17.654Z,23.42
2022-12-16T06:37:13.600Z,20.55
2022-12-16T06:40:00.018Z,18.15
2022-12-16T06:42:45.377Z,19.92
2022-12-16T06:45:34.724Z,20.00
2022-12-16T06:48:20.623Z,20.20
2022-12-16T06:51:06.382Z,15.82
2022-12-16T06:53:51.956Z,19.63
2022-12-16T06:56:39.117Z,19.70
2022-12-16T06:59:24.927Z,19.00
2022-12-16T07:02:10.230Z,15.65
2022-12-16T07:04:55.832Z,17.30
2022-12-16T07:07:41.405Z,16.83
2022-12-16T07:10:27.145Z,22.77
2022-12-16T07:13:16.749Z,17.85
2022-12-16T07:16:02.603Z,17.00
2022-12-16T07:18:47.750Z,19.10
2022-12-16T07:21:33.189Z,19.48
2022-12-16T07:24:18.660Z,17.30
2022-12-16T07:27:04.376Z,20.60
2022-12-16T07:29:49.975Z,20.40
2022-12-16T07:32:36.309Z,18.23
2022-12-16T07:35:21.909Z,18.35
2022-12-16T07:38:07.480Z,18.65
2022-12-16T07:40:52.773Z,26.05
2022-12-16T07:43:38.215Z,38.65
2022-12-16T07:46:23.637Z,38.10
2022-12-16T07:49:09.056Z,18.38
2022-12-16T07:51:54.528Z,22.02
2022-12-16T07:54:41.604Z,19.88
2022-12-16T07:57:26.998Z,23.10
2022-12-16T08:00:12.267Z,20.67
2022-12-16T08:02:57.636Z,25.58
2022-12-16T08:05:43.472Z,18.42
2022-12-16T08:08:28.740Z,14.55
2022-12-16T08:11:14.169Z,16.08
2022-12-16T08:13:59.625Z,17.90
2022-12-16T08:16:45.147Z,15.20
2022-12-16T08:19:30.605Z,12.90
2022-12-16T08:22:16.061Z,13.85
2022-12-16T08:25:01.583Z,17.42
2022-12-16T08:27:46.824Z,14.93
2022-12-16T08:30:32.298Z,15.45
2022-12-16T08:33:19.663Z,14.75
2022-12-16T08:36:06.542Z,13.75
2022-12-16T08:38:51.988Z,12.32
2022-12-16T08:41:38.571Z,15.05
2022-12-16T08:44:24.179Z,16.25
2022-12-16T08:47:10.264Z,15.02
2022-12-16T08:49:57.890Z,21.27
2022-12-16T08:52:47.299Z,14.75
2022-12-16T08:55:32.783Z,15.13
2022-12-16T08:58:18.109Z,13.20
2022-12-16T09:01:07.786Z,13.73
2022-12-16T09:03:55.063Z,12.70
2022-12-16T09:06:41.210Z,13.48
2022-12-16T09:09:28.505Z,14.77
2022-12-16T09:12:14.066Z,12.45
2022-12-16T09:14:59.372Z,14.93
2022-12-16T09:17:45.020Z,14.10
2022-12-16T09:20:30.524Z,17.05
2022-12-16T09:23:19.883Z,13.63
2022-12-16T09:26:05.619Z,12.57
2022-12-16T09:28:51.126Z,13.50
2022-12-16T09:31:36.603Z,13.38
2022-12-16T09:34:22.043Z,13.60
2022-12-16T09:37:11.896Z,14.15
2022-12-16T09:39:57.413Z,13.88
2022-12-16T09:42:47.973Z,14.38
2022-12-16T09:45:38.514Z,13.80
2022-12-16T09:48:49.338Z,12.20
2022-12-16T09:51:35.655Z,12.43
2022-12-16T09:54:22.930Z,15.18
2022-12-16T09:57:08.609Z,13.55
2022-12-16T09:59:59.588Z,12.77
2022-12-16T10:02:45.501Z,14.38
2022-12-16T10:05:34.148Z,15.80
2022-12-16T10:08:44.467Z,15.27
2022-12-16T10:11:45.791Z,15.95
2022-12-16T10:14:34.059Z,11.23
2022-12-16T10:17:27.428Z,15.00
2022-12-16T10:20:15.930Z,16.80
2022-12-16T10:23:27.650Z,16.75
2022-12-16T10:26:23.725Z,12.77
2022-12-16T10:29:20.795Z,14.07
2022-12-16T10:32:06.260Z,11.80
2022-12-16T10:34:55.641Z,16.67
2022-12-16T10:37:56.945Z,16.23
2022-12-16T10:40:46.693Z,13.68
2022-12-16T10:43:54.128Z,16.65
2022-12-16T10:46:45.428Z,14.38
2022-12-16T10:49:34.493Z,19.00
2022-12-16T10:52:20.415Z,18.13
2022-12-16T10:55:26.964Z,16.25
2022-12-16T10:58:33.975Z,16.35
2022-12-16T11:01:38.784Z,16.10
2022-12-16T11:04:48.119Z,16.13
2022-12-16T11:07:48.843Z,16.75
2022-12-16T11:11:03.248Z,15.70
2022-12-16T11:13:53.979Z,15.77
2022-12-16T11:16:45.646Z,14.45
2022-12-16T11:19:46.526Z,20.00
2022-12-16T11:22:42.683Z,15.15
2022-12-16T11:25:37.152Z,16.40
2022-12-16T11:28:22.478Z,17.25
2022-12-16T11:31:14.832Z,12.90
2022-12-16T11:34:02.339Z,14.07
2022-12-16T11:36:51.475Z,14.02
2022-12-16T11:39:42.279Z,16.35
2022-12-16T11:42:37.370Z,16.40
2022-12-16T11:45:25.089Z,13.50
2022-12-16T11:48:35.235Z,18.20
2022-12-16T11:51:22.718Z,17.13
2022-12-16T11:54:26.019Z,14.88
2022-12-16T11:57:12.440Z,14.52
2022-12-16T12:00:09.675Z,12.60
2022-12-16T12:03:01.182Z,11.82
2022-12-16T12:05:55.281Z,15.43
2022-12-16T12:08:57.178Z,15.07
2022-12-16T12:11:56.807Z,12.88
2022-12-16T12:14:54.745Z,15.15
2022-12-16T12:17:50.490Z,12.43
2022-12-16T12:21:11.102Z,12.00
2022-12-16T12:24:07.143Z,13.93
2022-12-16T12:26:56.489Z,12.35
2022-12-16T12:30:29.612Z,11.95
2022-12-16T12:33:32.222Z,12.38
2022-12-16T12:36:40.886Z,14.60
2022-12-16T12:39:41.976Z,11.35
2022-12-16T12:42:56.183Z,19.73
2022-12-16T12:46:00.513Z,12.15
2022-12-16T12:48:51.847Z,10.98
2022-12-16T12:51:48.448Z,19.63
2022-12-16T12:54:55.067Z,14.88
2022-12-16T12:57:44.808Z,11.55
2022-12-16T13:00:41.032Z,14.80
2022-12-16T13:03:41.665Z,10.07
2022-12-16T13:06:28.134Z,15.68
2022-12-16T13:09:16.413Z,10.43
2022-12-16T13:12:34.235Z,9.48
2022-12-16T13:15:38.606Z,13.43
2022-12-16T13:18:23.954Z,15.40
2022-12-16T13:21:16.633Z,15.38
2022-12-16T13:24:05.709Z,12.63
2022-12-16T13:26:53.796Z,9.02
2022-12-16T13:29:50.952Z,9.98
2022-12-16T13:32:38.309Z,7.95
2022-12-16T13:35:33.450Z,10.02
2022-12-16T13:38:36.778Z,8.25
2022-12-16T13:41:49.913Z,8.02
2022-12-16T13:45:03.173Z,10.23
2022-12-16T13:48:00.706Z,10.38
2022-12-16T13:50:59.806Z,9.07
2022-12-16T13:53:51.469Z,7.40
2022-12-16T13:56:55.130Z,7.57
2022-12-16T13:59:45.134Z,14.98
2022-12-16T14:02:46.165Z,11.13
2022-12-16T14:05:43.146Z,9.57
2022-12-16T14:08:36.545Z,8.48
2022-12-16T14:11:25.099Z,9.25
2022-12-16T14:14:21.605Z,8.52
2022-12-16T14:17:13.110Z,8.13
2022-12-16T14:20:04.829Z,8.02
2022-12-16T14:23:56.002Z,9.13
2022-12-16T14:26:38.512Z,9.32
2022-12-16T14:29:43.358Z,8.98
2022-12-16T14:32:50.234Z,8.43
2022-12-16T14:35:39.266Z,12.20
2022-12-16T14:38:42.080Z,15.43
2022-12-16T14:41:42.060Z,10.73
2022-12-16T14:44:42.298Z,10.52
2022-12-16T14:47:39.138Z,13.23
2022-12-16T14:50:44.587Z,9.77
2022-12-16T14:53:33.048Z,11.32
2022-12-16T14:56:34.466Z,10.30
2022-12-16T14:59:33.610Z,11.60
2022-12-16T15:02:39.297Z,11.25
2022-12-16T15:05:25.691Z,12.95
2022-12-16T15:08:11.132Z,10.50
2022-12-16T15:10:56.935Z,10.25
2022-12-16T15:13:43.230Z,10.48
2022-12-16T15:16:35.754Z,13.15
2022-12-16T15:19:22.274Z,13.32
2022-12-16T15:22:09.834Z,13.27
2022-12-16T15:24:57.811Z,23.00
2022-12-16T15:27:45.590Z,17.77
2022-12-16T15:30:50.721Z,8.95
2022-12-16T15:33:42.923Z,13.20
2022-12-16T15:36:47.769Z,11.32
2022-12-16T15:39:48.205Z,11.80
2022-12-16T15:42:47.911Z,11.75
2022-12-16T15:45:42.527Z,14.05
2022-12-16T15:48:37.847Z,8.50
2022-12-16T15:51:36.940Z,11.80
2022-12-16T15:54:22.669Z,13.70
2022-12-16T15:57:08.094Z,12.18
2022-12-16T15:59:55.159Z,10.70
2022-12-16T16:02:49.200Z,12.48
2022-12-16T16:05:39.427Z,12.75
2022-12-16T16:08:25.471Z,13.18
2022-12-16T16:11:15.057Z,13.88
2022-12-16T16:14:07.172Z,12.10
2022-12-16T16:16:56.458Z,11.70
2022-12-16T16:19:44.878Z,12.85
2022-12-16T16:22:35.952Z,13.07
2022-12-16T16:25:21.344Z,15.55
2022-12-16T16:28:06.546Z,19.05
2022-12-16T16:30:51.935Z,13.75
2022-12-16T16:33:37.949Z,14.40
2022-12-16T16:36:34.836Z,14.48
2022-12-16T16:39:20.124Z,15.27
2022-12-16T16:42:05.495Z,14.15
2022-12-16T16:44:50.896Z,16.70
2022-12-16T16:47:36.814Z,17.70
2022-12-16T16:50:22.469Z,15.60
2022-12-16T16:53:07.870Z,20.10
2022-12-16T16:55:53.256Z,18.92
2022-12-16T16:58:48.391Z,14.25
2022-12-16T17:01:35.926Z,16.80
2022-12-16T17:04:22.290Z,19.80
2022-12-16T17:07:07.913Z,18.90
2022-12-16T17:09:53.434Z,20.23
2022-12-16T17:12:41.430Z,19.85
2022-12-16T17:15:47.868Z,19.80
2022-12-16T17:18:33.735Z,19.73
2022-12-16T17:21:20.891Z,22.88
2022-12-16T17:24:06.269Z,20.90
2022-12-16T17:26:51.571Z,23.95
2022-12-16T17:29:46.633Z,21.55
2022-12-16T17:32:32.565Z,25.55
2022-12-16T17:35:18.436Z,24.40
2022-12-16T17:38:03.854Z,23.73
2022-12-16T17:40:49.461Z,25.20
2022-12-16T17:43:35.032Z,18.05
2022-12-16T17:46:23.852Z,23.30
2022-12-16T17:49:10.897Z,21.33
2022-12-16T17:51:56.750Z,19.60
2022-12-16T17:54:42.241Z,22.23
2022-12-16T17:57:28.192Z,22.77
2022-12-16T18:00:13.601Z,24.85
2022-12-16T18:02:59.581Z,22.85
2022-12-16T18:05:45.864Z,22.92
2022-12-16T18:08:31.675Z,22.50
2022-12-16T18:11:18.052Z,24.50
2022-12-16T18:14:03.456Z,21.45
2022-12-16T18:16:49.479Z,23.73
2022-12-16T18:19:35.445Z,24.40
2022-12-16T18:22:21.408Z,21.55
2022-12-16T18:25:07.205Z,25.40
2022-12-16T18:27:54.832Z,28.23
2022-12-16T18:30:40.538Z,37.10
2022-12-16T18:33:26.473Z,58.28
2022-12-16T18:36:11.860Z,39.05
2022-12-16T18:38:57.117Z,44.65
2022-12-16T18:41:42.514Z,39.65
2022-12-16T18:44:30.470Z,98.88
2022-12-16T18:47:15.726Z,44.95
2022-12-16T18:50:01.194Z,40.03
2022-12-16T18:52:47.054Z,35.95
2022-12-16T18:55:32.473Z,46.33
2022-12-16T18:58:42.791Z,36.03
2022-12-16T19:01:27.851Z,37.80
2022-12-16T19:04:14.542Z,39.90
2022-12-16T19:07:00.247Z,37.60
2022-12-16T19:09:46.039Z,57.65
2022-12-16T19:12:31.494Z,43.38
2022-12-16T19:15:17.008Z,41.10
2022-12-16T19:18:02.323Z,38.55
2022-12-16T19:20:47.809Z,37.05
2022-12-16T19:23:33.754Z,32.83
2022-12-16T19:26:20.176Z,43.78
2022-12-16T19:29:05.700Z,39.13
2022-12-16T19:32:01.828Z,35.20
2022-12-16T19:34:47.540Z,34.50
2022-12-16T19:37:33.088Z,36.05
2022-12-16T19:40:18.828Z,39.20
2022-12-16T19:43:04.066Z,36.55
2022-12-16T19:45:49.333Z,37.65
2022-12-16T19:48:34.884Z,40.00
2022-12-16T19:51:21.580Z,33.55
2022-12-16T19:54:07.093Z,33.00
2022-12-16T19:56:52.489Z,39.95
2022-12-16T19:59:40.841Z,32.75
2022-12-16T20:02:29.864Z,33.90
2022-12-16T20:05:16.240Z,39.70
2022-12-16T20:08:01.851Z,41.10
2022-12-16T20:10:47.442Z,38.55
2022-12-16T20:13:32.925Z,45.70
2022-12-16T20:16:23.817Z,36.20
2022-12-16T20:19:09.164Z,40.83
2022-12-16T20:25:00.727Z,35.72
2022-12-16T20:27:46.014Z,35.10
2022-12-16T20:30:31.368Z,38.75
2022-12-16T20:33:20.003Z,36.78
2022-12-16T20:36:19.729Z,33.83
2022-12-16T20:39:05.836Z,38.47
2022-12-16T20:41:56.149Z,40.13
2022-12-16T20:44:42.640Z,42.05
2022-12-16T20:47:28.363Z,45.70
2022-12-16T20:50:13.676Z,42.30
2022-12-16T20:53:02.298Z,39.35
2022-12-16T20:55:51.741Z,40.83
2022-12-16T20:58:38.952Z,39.63
2022-12-16T21:01:25.168Z,42.50
2022-12-16T21:04:14.061Z,43.58
2022-12-16T21:06:59.462Z,36.33
2022-12-16T21:09:44.793Z,41.22
2022-12-16T21:12:30.188Z,44.70
2022-12-16T21:14:42.270Z,35.28
2022-12-16T21:15:15.584Z,41.58
2022-12-16T21:18:00.946Z,41.17
2022-12-16T21:20:46.757Z,41.00
2022-12-16T21:23:32.155Z,41.78
2022-12-16T21:26:18.513Z,34.67
2022-12-16T21:29:04.941Z,43.97
2022-12-16T21:31:50.498Z,42.63
2022-12-16T21:34:40.564Z,44.33
2022-12-16T21:37:26.036Z,46.67
2022-12-16T21:40:11.767Z,44.05
2022-12-16T21:42:57.138Z,41.30
2022-12-16T21:45:42.515Z,40.88
2022-12-16T21:48:29.914Z,46.88
2022-12-16T21:51:15.584Z,39.65
2022-12-16T21:54:04.903Z,45.75
2022-12-16T21:59:59.136Z,41.60
2022-12-16T22:02:44.610Z,40.78
2022-12-16T22:05:30.021Z,36.95
2022-12-16T22:08:15.531Z,39.63
2022-12-16T22:11:00.926Z,44.85
2022-12-16T22:13:49.131Z,40.85
2022-12-16T22:16:34.548Z,40.17
2022-12-16T22:19:19.926Z,45.28
2022-12-16T22:22:06.888Z,40.28
2022-12-16T22:24:52.410Z,40.15
2022-12-16T22:27:39.524Z,45.47
2022-12-16T22:30:25.965Z,45.58
2022-12-16T22:33:11.467Z,42.03
2022-12-16T22:35:56.868Z,43.63
2022-12-16T22:38:42.390Z,43.30
2022-12-16T22:41:27.805Z,42.60
2022-12-16T22:44:13.230Z,48.47
2022-12-16T22:46:58.894Z,42.13
2022-12-16T22:49:44.459Z,47.67
2022-12-16T22:52:29.783Z,43.75
2022-12-16T22:55:15.067Z,47.17
2022-12-16T22:58:00.366Z,48.13
2022-12-16T23:00:46.203Z,48.20
2022-12-16T23:03:36.317Z,46.75
2022-12-16T23:06:21.765Z,44.30
2022-12-16T23:09:07.302Z,41.92
2022-12-16T23:11:56.804Z,41.15
2022-12-16T23:14:43.173Z,42.00
2022-12-16T23:17:30.124Z,41.00
2022-12-16T23:20:15.552Z,40.65
2022-12-16T23:23:01.414Z,47.08
2022-12-16T23:25:47.324Z,42.67
2022-12-16T23:28:32.494Z,42.22
2022-12-16T23:31:19.539Z,37.22
2022-12-16T23:34:06.590Z,38.67
2022-12-16T23:36:51.929Z,40.30
2022-12-16T23:39:38.765Z,35.72
2022-12-16T23:42:24.329Z,40.40
2022-12-16T23:45:09.749Z,37.88
2022-12-16T23:47:55.435Z,40.17
2022-12-16T23:50:49.318Z,39.40
2022-12-16T23:53:35.186Z,41.65
2022-12-16T23:56:20.929Z,34.00
2022-12-16T23:59:06.989Z,38.53
